KDIK/DIK METAR and TAF weather

Enter ICAO airport designator
Station Type Date Time Source
KDIK METAR 2018/04/20 08:56 UTC NOAA

KDIK 200856Z AUTO 13009KT 10SM CLR 00/M02 A3022 RMK AO2 SLP245 T00001022 58006


Station Type Date Time Source
KDIK Decoded METAR 2018/04/20 08:56 UTC NOAA

THEODORE ROOSEVELT REGIONAL, ND, United States (KDIK) 46-48N 102-48W 788M
Apr 20, 2018 - 04:56 AM EDT / 2018.04.20 0856 UTC
Wind: from the SE (130 degrees) at 10 MPH (9 KT):0
Visibility: 10 mile(s):0
Sky conditions: clear
Temperature: 32.0 F (0.0 C)
Windchill: 23 F (-5 C):1
Dew Point: 28.0 F (-2.2 C)
Relative Humidity: 85%
Pressure (altimeter): 30.22 in. Hg (1023 hPa)
Pressure tendency: 0.02 inches (0.6 hPa) lower than three hours ago
ob: KDIK 200856Z AUTO 13009KT 10SM CLR 00/M02 A3022 RMK AO2 SLP245 T00001022 58006
cycle: 9

Station Type Date Time Source
KDIK TAF 2018/04/20 06:24 UTC NOAA

TAF KDIK 200521Z 2006/2106 09007KT P6SM BKN200
FM201500 14012G20KT P6SM SCT035 SCT080
FM210100 15012KT P6SM SCT030 BKN080


Example: see airport list